Time;durP1;ratioP1;P1;durP2;ratioP2;P2;SDS_P1;SDS_P2;PMS_P1;PMS_P2;Temp;Humidity;BMP_temperature;BMP_pressure;BME280_temperature;BME280_humidity;BME280_pressure;Samples;Min_cycle;Max_cycle;Signal;HPM_P1;HPM_P2
2022/03/18 00:02:25;;;;;;;56.67;26.42;;;3.40;99.90;;;;;;5052174;28;20021;-74
2022/03/18 00:04:52;;;;;;;53.58;24.20;;;3.40;99.90;;;;;;5052324;28;20017;-73
2022/03/18 00:07:20;;;;;;;54.92;24.00;;;3.40;99.90;;;;;;5049997;28;20028;-74
2022/03/18 00:09:47;;;;;;;57.33;26.60;;;3.40;99.90;;;;;;5052158;28;20025;-74
2022/03/18 00:12:13;;;;;;;58.45;26.98;;;3.30;99.90;;;;;;5050877;28;20644;-75
2022/03/18 00:14:39;;;;;;;63.92;26.80;;;3.40;99.90;;;;;;5052075;28;20151;-74
2022/03/18 00:17:10;;;;;;;60.83;28.05;;;3.30;99.90;;;;;;5052316;28;20108;-74
2022/03/18 00:19:38;;;;;;;63.07;29.97;;;3.30;99.90;;;;;;5052282;28;20021;-73
2022/03/18 00:22:05;;;;;;;68.50;30.92;;;3.30;99.90;;;;;;5052196;28;20040;-74
2022/03/18 00:24:32;;;;;;;58.95;29.73;;;3.30;99.90;;;;;;5052077;28;20028;-74
2022/03/18 00:27:06;;;;;;;67.85;30.30;;;3.30;99.90;;;;;;5049329;28;20028;-74
2022/03/18 00:29:32;;;;;;;61.83;29.13;;;3.30;99.90;;;;;;5051540;28;20069;-75
2022/03/18 00:31:59;;;;;;;62.72;29.58;;;3.20;99.90;;;;;;5049160;28;20539;-74
2022/03/18 00:34:26;;;;;;;64.55;26.92;;;3.20;99.90;;;;;;5052218;28;20029;-74
2022/03/18 00:36:53;;;;;;;64.82;27.90;;;3.20;99.90;;;;;;5052058;28;20021;-74
2022/03/18 00:39:19;;;;;;;71.20;31.00;;;3.20;99.90;;;;;;5049000;28;20033;-74
2022/03/18 00:41:45;;;;;;;73.30;34.08;;;3.20;99.90;;;;;;5052122;28;20017;-74
2022/03/18 00:44:11;;;;;;;63.92;28.63;;;3.20;99.90;;;;;;5052070;28;20013;-76
2022/03/18 00:46:36;;;;;;;69.25;28.63;;;3.20;99.90;;;;;;5052133;28;20044;-74
2022/03/18 00:52:02;;;;;;;60.13;28.20;;;3.30;99.90;;;;;;5050605;28;20478;-75
2022/03/18 00:54:28;;;;;;;54.83;25.88;;;3.20;99.90;;;;;;5050568;28;20107;-75
2022/03/18 00:56:54;;;;;;;52.78;24.88;;;3.20;99.90;;;;;;5052087;28;20117;-73
2022/03/18 00:59:20;;;;;;;57.95;25.67;;;3.10;99.90;;;;;;5051993;28;20037;-74
2022/03/18 01:01:45;;;;;;;55.65;24.65;;;3.10;99.90;;;;;;5054718;28;20086;-75
2022/03/18 01:04:11;;;;;;;60.78;26.80;;;3.10;99.90;;;;;;5055548;28;20059;-73
2022/03/18 01:06:37;;;;;;;58.42;25.50;;;3.00;99.90;;;;;;5055660;28;20029;-74
2022/03/18 01:09:04;;;;;;;64.50;27.92;;;3.00;99.90;;;;;;5055649;28;20017;-74
2022/03/18 01:11:31;;;;;;;64.60;26.92;;;2.90;99.90;;;;;;5055684;28;20024;-74
2022/03/18 01:13:57;;;;;;;60.33;26.70;;;2.90;99.90;;;;;;5055487;28;20029;-74
2022/03/18 01:16:23;;;;;;;64.47;27.30;;;2.90;99.90;;;;;;5055586;28;20048;-74
2022/03/18 01:18:49;;;;;;;58.53;27.83;;;2.80;99.90;;;;;;5055520;28;20044;-73
2022/03/18 01:21:14;;;;;;;58.88;28.73;;;2.80;99.90;;;;;;5055230;28;20448;-74
2022/03/18 01:23:40;;;;;;;56.95;26.52;;;2.80;99.90;;;;;;5055831;28;20105;-73
2022/03/18 01:26:06;;;;;;;67.63;29.55;;;2.80;99.90;;;;;;5055325;28;20521;-74
2022/03/18 01:28:32;;;;;;;75.68;33.10;;;2.70;99.90;;;;;;5055248;28;20032;-73
2022/03/18 01:30:58;;;;;;;63.95;28.75;;;2.70;99.90;;;;;;5055092;28;20095;-73
2022/03/18 01:33:24;;;;;;;65.43;29.38;;;2.70;99.90;;;;;;5055114;28;20097;-74
2022/03/18 01:35:50;;;;;;;64.57;28.75;;;2.70;99.90;;;;;;5054720;28;20037;-74
2022/03/18 01:38:16;;;;;;;60.03;27.17;;;2.60;99.90;;;;;;5055041;28;20017;-73
2022/03/18 01:40:41;;;;;;;68.75;29.58;;;2.60;99.90;;;;;;5055205;28;20606;-73
2022/03/18 01:43:11;;;;;;;72.20;31.30;;;2.60;99.90;;;;;;5054671;28;20041;-73
2022/03/18 01:45:38;;;;;;;55.55;26.70;;;2.60;99.90;;;;;;5055027;28;20017;-73
2022/03/18 01:48:05;;;;;;;70.88;32.15;;;2.50;99.90;;;;;;5054979;28;20023;-73
2022/03/18 01:50:31;;;;;;;68.28;29.98;;;2.50;99.90;;;;;;5054730;28;20033;-74
2022/03/18 01:52:58;;;;;;;65.68;28.42;;;2.50;99.90;;;;;;5054753;28;20031;-75
2022/03/18 01:55:24;;;;;;;89.78;36.25;;;2.50;99.90;;;;;;5054804;28;20053;-75
2022/03/18 01:57:51;;;;;;;65.95;29.48;;;2.50;99.90;;;;;;5054445;28;20027;-73
2022/03/18 02:00:19;;;;;;;69.72;28.08;;;2.50;99.90;;;;;;5054395;28;20032;-75
2022/03/18 02:02:46;;;;;;;61.22;27.63;;;2.50;99.90;;;;;;5054520;28;20044;-75
2022/03/18 02:05:12;;;;;;;64.07;26.60;;;2.50;99.90;;;;;;5054680;28;20053;-74
2022/03/18 02:07:38;;;;;;;66.93;26.65;;;2.60;99.90;;;;;;5054537;28;20049;-73
2022/03/18 02:10:05;;;;;;;59.65;25.02;;;2.50;99.90;;;;;;5054028;28;20035;-74
2022/03/18 02:12:31;;;;;;;47.03;21.67;;;2.60;99.90;;;;;;5054585;28;20867;-74
2022/03/18 02:14:57;;;;;;;45.53;22.15;;;2.60;99.90;;;;;;5054746;28;20021;-74
2022/03/18 02:17:23;;;;;;;45.00;21.60;;;2.60;99.90;;;;;;5054039;28;20174;-74
2022/03/18 02:19:49;;;;;;;48.22;22.90;;;2.60;99.90;;;;;;5054526;28;20028;-74
2022/03/18 02:22:26;;;;;;;48.78;22.70;;;2.60;99.90;;;;;;5054189;28;20025;-74
2022/03/18 02:24:54;;;;;;;52.22;22.33;;;2.60;99.90;;;;;;5053890;28;20434;-75
2022/03/18 02:27:21;;;;;;;48.25;21.73;;;2.60;99.90;;;;;;5051561;28;20059;-73
2022/03/18 02:29:47;;;;;;;55.53;24.90;;;2.70;99.90;;;;;;5053953;28;20025;-75
2022/03/18 02:32:13;;;;;;;55.15;26.73;;;2.60;99.90;;;;;;5054076;28;20039;-73
2022/03/18 02:34:40;;;;;;;60.03;26.77;;;2.50;99.90;;;;;;5054099;28;20025;-75
2022/03/18 02:37:07;;;;;;;70.85;31.23;;;2.40;99.90;;;;;;5054116;28;20071;-74
2022/03/18 02:39:33;;;;;;;71.88;33.63;;;2.40;99.90;;;;;;5053877;28;20043;-74
2022/03/18 02:41:59;;;;;;;71.65;34.40;;;2.40;99.90;;;;;;5053919;28;20040;-75
2022/03/18 02:44:25;;;;;;;74.53;34.88;;;2.30;99.90;;;;;;5053731;28;20388;-75
2022/03/18 02:46:51;;;;;;;69.38;32.33;;;2.20;99.90;;;;;;5053542;28;20029;-73
2022/03/18 02:49:17;;;;;;;68.35;31.30;;;2.10;99.90;;;;;;5053423;28;20028;-73
2022/03/18 02:51:43;;;;;;;63.88;29.58;;;2.10;99.90;;;;;;5053648;28;20029;-75
2022/03/18 02:54:12;;;;;;;63.38;25.85;;;2.00;99.90;;;;;;5053584;28;20460;-73
2022/03/18 02:56:39;;;;;;;51.38;24.38;;;2.00;99.90;;;;;;5053696;28;20047;-74
2022/03/18 02:59:05;;;;;;;55.65;24.30;;;2.10;99.90;;;;;;5053758;28;20041;-74
2022/03/18 03:01:31;;;;;;;47.90;23.17;;;2.10;99.90;;;;;;5053824;28;20496;-74
2022/03/18 03:03:58;;;;;;;45.83;21.35;;;2.20;99.90;;;;;;5055072;28;20033;-73
2022/03/18 03:09:08;;;;;;;56.42;25.70;;;2.20;99.90;;;;;;5054757;28;20032;-73
2022/03/18 03:11:34;;;;;;;52.75;24.88;;;2.20;99.90;;;;;;5055179;28;20115;-73
2022/03/18 03:14:01;;;;;;;51.15;24.75;;;2.20;99.90;;;;;;5054364;28;20384;-73
2022/03/18 03:16:28;;;;;;;45.47;21.65;;;2.20;99.90;;;;;;5054613;28;20056;-74
2022/03/18 03:18:54;;;;;;;46.83;22.30;;;2.20;99.90;;;;;;5054802;28;20025;-73
2022/03/18 03:21:20;;;;;;;51.75;23.75;;;2.20;99.90;;;;;;5054149;28;20388;-74
2022/03/18 03:23:46;;;;;;;51.67;24.85;;;2.20;99.90;;;;;;5053638;28;20032;-73
2022/03/18 03:26:12;;;;;;;54.20;23.80;;;2.20;99.90;;;;;;5054626;28;20095;-74
2022/03/18 03:28:38;;;;;;;54.40;24.52;;;2.10;99.90;;;;;;5054367;28;20044;-73
2022/03/18 03:31:05;;;;;;;56.88;24.83;;;2.10;99.90;;;;;;5054264;28;20403;-72
2022/03/18 03:33:32;;;;;;;61.47;27.20;;;2.20;99.90;;;;;;5053208;28;20033;-74
2022/03/18 03:35:58;;;;;;;48.85;24.50;;;2.20;99.90;;;;;;5053144;28;20057;-72
2022/03/18 03:38:25;;;;;;;64.88;29.67;;;2.20;99.90;;;;;;5053018;28;20056;-72
2022/03/18 03:40:51;;;;;;;67.82;34.97;;;2.10;99.90;;;;;;5053321;28;20036;-73
2022/03/18 03:43:18;;;;;;;81.80;37.97;;;2.10;99.90;;;;;;5054236;28;20033;-74
2022/03/18 03:45:43;;;;;;;100.78;47.55;;;2.00;99.90;;;;;;5053959;28;20464;-74
2022/03/18 03:48:10;;;;;;;94.85;47.83;;;1.90;99.90;;;;;;5053323;28;20033;-73
2022/03/18 03:50:37;;;;;;;88.80;46.53;;;1.90;99.90;;;;;;5053278;28;20076;-73
2022/03/18 03:53:03;;;;;;;88.38;41.80;;;1.90;99.90;;;;;;5053890;28;20036;-74
2022/03/18 03:55:30;;;;;;;80.22;36.53;;;1.90;99.90;;;;;;5053691;28;20025;-74
2022/03/18 03:57:55;;;;;;;65.25;28.67;;;1.80;99.90;;;;;;5053871;28;20021;-74
2022/03/18 04:00:21;;;;;;;62.92;26.38;;;1.80;99.90;;;;;;5053511;28;20039;-74
2022/03/18 04:02:47;;;;;;;52.50;25.45;;;1.80;99.90;;;;;;5053647;28;20032;-74
2022/03/18 04:05:13;;;;;;;59.20;26.65;;;1.80;99.90;;;;;;5053670;28;20035;-73
2022/03/18 04:07:41;;;;;;;52.20;25.30;;;1.80;99.90;;;;;;5053517;28;20021;-73
2022/03/18 04:10:09;;;;;;;51.33;25.50;;;1.90;99.90;;;;;;5053105;28;20061;-73
2022/03/18 04:12:35;;;;;;;57.15;25.80;;;1.80;99.90;;;;;;5053461;28;20036;-73
2022/03/18 04:15:03;;;;;;;56.90;27.75;;;1.80;99.90;;;;;;5053334;28;20021;-73
2022/03/18 04:17:43;;;;;;;68.15;27.35;;;1.80;99.90;;;;;;5052520;28;20418;-74
2022/03/18 04:20:11;;;;;;;54.42;26.60;;;1.80;99.90;;;;;;5052735;28;20032;-75
2022/03/18 04:22:38;;;;;;;65.10;29.10;;;1.80;99.90;;;;;;5052595;28;20025;-74
2022/03/18 04:25:04;;;;;;;59.08;27.13;;;1.70;99.90;;;;;;5052794;28;20452;-75
2022/03/18 04:27:30;;;;;;;69.07;29.00;;;1.70;99.90;;;;;;5052818;28;20035;-75
2022/03/18 04:29:55;;;;;;;61.83;28.80;;;1.70;99.90;;;;;;5052049;28;20128;-75
2022/03/18 04:32:21;;;;;;;69.15;29.63;;;1.70;99.90;;;;;;5052756;28;20113;-74
2022/03/18 04:34:47;;;;;;;57.60;28.30;;;1.70;99.90;;;;;;5054505;28;20371;-73
2022/03/18 04:37:13;;;;;;;72.32;30.05;;;1.70;99.90;;;;;;5057389;28;20353;-74
2022/03/18 04:39:39;;;;;;;60.72;28.70;;;1.70;99.90;;;;;;5057630;28;20056;-74
2022/03/18 04:42:05;;;;;;;66.65;28.67;;;1.70;99.90;;;;;;5057049;28;20403;-72
2022/03/18 04:44:30;;;;;;;56.92;27.42;;;1.70;99.90;;;;;;5056230;28;20021;-73
2022/03/18 04:46:56;;;;;;;61.00;27.85;;;1.70;99.90;;;;;;5057125;28;20120;-75
2022/03/18 04:49:22;;;;;;;66.00;29.83;;;1.70;99.90;;;;;;5057283;28;20456;-73
2022/03/18 04:51:48;;;;;;;69.22;32.45;;;1.70;99.90;;;;;;5057108;28;20032;-73
2022/03/18 04:54:13;;;;;;;93.57;42.42;;;1.70;99.90;;;;;;5057087;28;20025;-72
2022/03/18 04:59:24;;;;;;;56.20;28.67;;;1.80;99.90;;;;;;5056478;28;20032;-73
2022/03/18 05:01:50;;;;;;;59.47;28.15;;;1.80;99.90;;;;;;5056771;28;20025;-71
2022/03/18 05:04:15;;;;;;;57.55;28.30;;;1.80;99.90;;;;;;5057048;28;20100;-74
2022/03/18 05:06:41;;;;;;;61.88;29.55;;;1.80;99.90;;;;;;5057049;28;20032;-71
2022/03/18 05:09:07;;;;;;;61.08;28.80;;;1.80;99.90;;;;;;5057101;28;20025;-73
2022/03/18 05:11:33;;;;;;;70.85;31.75;;;1.80;99.90;;;;;;5056729;28;20044;-74
2022/03/18 05:13:59;;;;;;;68.70;31.45;;;1.70;99.90;;;;;;5056861;28;20033;-74
2022/03/18 05:16:25;;;;;;;66.78;31.23;;;1.80;99.90;;;;;;5056835;28;20032;-73
2022/03/18 05:18:52;;;;;;;63.67;28.25;;;1.80;99.90;;;;;;5056712;28;20022;-73
2022/03/18 05:21:19;;;;;;;67.15;32.47;;;1.80;99.90;;;;;;5057264;28;20135;-73
2022/03/18 05:23:46;;;;;;;61.92;31.02;;;2.00;99.90;;;;;;5056751;28;20487;-74
2022/03/18 05:26:12;;;;;;;61.60;29.88;;;2.00;99.90;;;;;;5056709;28;20470;-73
2022/03/18 05:28:39;;;;;;;62.75;28.55;;;2.00;99.90;;;;;;5056385;28;20033;-73
2022/03/18 05:31:05;;;;;;;66.40;31.42;;;2.00;99.90;;;;;;5056061;28;20507;-73
2022/03/18 05:33:31;;;;;;;64.75;29.23;;;2.00;99.90;;;;;;5056193;28;20025;-73
2022/03/18 05:35:56;;;;;;;80.28;34.60;;;2.10;99.90;;;;;;5056091;28;20415;-74
2022/03/18 05:38:22;;;;;;;82.82;39.45;;;2.10;99.90;;;;;;5056560;28;20100;-73
2022/03/18 05:40:48;;;;;;;71.97;36.88;;;2.20;99.90;;;;;;5056216;28;20032;-73
2022/03/18 05:43:14;;;;;;;69.05;34.78;;;2.20;99.90;;;;;;5055624;28;20021;-73
2022/03/18 05:45:40;;;;;;;72.32;35.00;;;2.20;99.90;;;;;;5055452;28;20025;-73
2022/03/18 05:48:09;;;;;;;79.72;38.67;;;2.30;99.90;;;;;;5055701;28;20027;-73
2022/03/18 05:50:35;;;;;;;62.80;29.23;;;2.30;99.90;;;;;;5056061;28;20490;-74
2022/03/18 05:53:01;;;;;;;66.40;31.23;;;2.40;99.90;;;;;;5056375;28;20067;-73
2022/03/18 05:56:52;;;;;;;69.57;34.25;;;2.40;99.90;;;;;;5056203;28;20052;-74
2022/03/18 05:58:14;;;;;;;69.45;33.05;;;2.50;99.90;;;;;;5055814;28;20429;-74
2022/03/18 06:00:42;;;;;;;75.18;32.83;;;2.50;99.90;;;;;;5055762;28;20470;-74
2022/03/18 06:03:08;;;;;;;68.43;30.70;;;2.60;99.90;;;;;;5056238;28;20064;-74
2022/03/18 06:05:34;;;;;;;76.75;35.85;;;2.60;99.90;;;;;;5056089;28;20053;-74
2022/03/18 06:13:28;;;;;;;96.97;48.90;;;2.90;99.90;;;;;;5054532;28;20542;-74
2022/03/18 06:15:54;;;;;;;87.40;45.20;;;2.80;99.90;;;;;;5055439;28;20029;-73
2022/03/18 06:18:19;;;;;;;76.97;35.28;;;2.90;99.90;;;;;;5055533;28;20060;-73
2022/03/18 06:20:52;;;;;;;85.35;41.63;;;2.90;99.90;;;;;;5055900;28;20024;-73
2022/03/18 06:23:18;;;;;;;67.95;32.20;;;3.10;99.90;;;;;;5055738;28;20025;-74
2022/03/18 06:25:44;;;;;;;105.95;42.95;;;3.10;99.90;;;;;;5054438;28;20383;-74
2022/03/18 06:28:10;;;;;;;107.80;46.45;;;3.10;99.90;;;;;;5055759;28;20033;-75
2022/03/18 06:30:36;;;;;;;92.30;44.05;;;3.30;99.90;;;;;;5053983;28;20053;-74
2022/03/18 06:33:02;;;;;;;68.07;35.58;;;3.30;99.90;;;;;;5055199;28;20025;-73
2022/03/18 06:35:27;;;;;;;67.28;33.35;;;3.30;99.90;;;;;;5055396;28;20020;-73
2022/03/18 06:37:54;;;;;;;57.90;29.48;;;3.50;99.90;;;;;;5055381;28;20371;-73
2022/03/18 06:40:20;;;;;;;79.45;38.08;;;3.50;99.90;;;;;;5055435;28;20460;-74
2022/03/18 06:42:46;;;;;;;81.57;38.33;;;3.60;99.90;;;;;;5055230;28;20040;-72
2022/03/18 06:45:12;;;;;;;80.82;37.05;;;3.80;99.90;;;;;;5055644;28;20033;-75
2022/03/18 06:47:38;;;;;;;73.95;35.85;;;3.90;99.90;;;;;;5055580;28;20036;-74
2022/03/18 06:50:05;;;;;;;60.38;32.83;;;3.90;99.90;;;;;;5055329;28;20537;-74
2022/03/18 06:52:31;;;;;;;60.28;27.88;;;4.00;99.90;;;;;;5055058;28;20040;-75
2022/03/18 06:54:59;;;;;;;55.10;26.02;;;4.00;99.90;;;;;;5055130;28;20029;-74
2022/03/18 06:57:25;;;;;;;53.42;27.05;;;4.10;99.90;;;;;;5054533;28;20027;-74
2022/03/18 06:59:50;;;;;;;52.63;26.83;;;4.20;99.90;;;;;;5054587;28;20029;-74
2022/03/18 07:02:16;;;;;;;55.40;30.63;;;4.30;99.90;;;;;;5055058;28;20103;-74
2022/03/18 07:04:42;;;;;;;65.35;26.77;;;4.40;99.90;;;;;;5054844;28;20021;-74
2022/03/18 07:07:08;;;;;;;59.53;30.58;;;4.50;99.90;;;;;;5055185;28;20104;-74
2022/03/18 07:09:34;;;;;;;56.78;28.73;;;4.50;99.90;;;;;;5054930;28;20025;-74
2022/03/18 07:12:00;;;;;;;62.25;34.08;;;4.70;99.90;;;;;;5054607;28;20025;-74
2022/03/18 07:14:26;;;;;;;53.72;28.33;;;4.80;99.90;;;;;;5055125;28;20361;-74
2022/03/18 07:19:38;;;;;;;59.35;32.88;;;5.00;99.90;;;;;;5054227;28;20059;-74
2022/03/18 07:22:05;;;;;;;102.28;54.63;;;5.00;99.90;;;;;;5054518;28;20025;-74
2022/03/18 07:24:30;;;;;;;66.47;36.22;;;5.00;99.90;;;;;;5053361;28;20429;-75
2022/03/18 07:26:56;;;;;;;48.15;26.02;;;5.20;99.90;;;;;;5054424;28;20526;-73
2022/03/18 07:29:22;;;;;;;45.17;20.50;;;5.30;99.90;;;;;;5054094;28;20029;-74
2022/03/18 07:31:48;;;;;;;39.95;20.23;;;5.50;99.90;;;;;;5054439;28;20131;-75
2022/03/18 07:34:14;;;;;;;54.25;26.52;;;5.60;99.90;;;;;;5054751;28;20480;-74
2022/03/18 07:36:39;;;;;;;35.60;20.73;;;5.80;99.90;;;;;;5054518;28;20029;-73
2022/03/18 07:39:05;;;;;;;38.50;19.48;;;5.90;99.90;;;;;;5054154;28;20464;-75
2022/03/18 07:41:31;;;;;;;35.83;17.45;;;6.10;99.90;;;;;;5054055;28;20098;-74
2022/03/18 07:43:57;;;;;;;34.65;17.92;;;6.00;99.90;;;;;;5054181;28;20036;-74
2022/03/18 07:46:22;;;;;;;36.05;18.02;;;6.20;99.20;;;;;;5054318;28;20104;-74
2022/03/18 07:48:48;;;;;;;55.08;29.35;;;6.30;98.30;;;;;;5053811;28;20036;-73
2022/03/18 07:51:14;;;;;;;62.15;27.88;;;6.60;97.30;;;;;;5053807;28;20044;-74
2022/03/18 07:53:40;;;;;;;34.60;18.90;;;6.50;95.50;;;;;;5053704;28;20021;-74
2022/03/18 07:56:06;;;;;;;41.17;19.17;;;6.70;96.10;;;;;;5054034;28;20029;-73
2022/03/18 07:58:32;;;;;;;40.03;22.00;;;6.90;94.80;;;;;;5053882;28;20429;-73
2022/03/18 08:00:58;;;;;;;36.40;20.00;;;6.90;94.00;;;;;;5053571;28;20044;-74
2022/03/18 08:03:23;;;;;;;38.55;21.33;;;7.10;93.10;;;;;;5053713;28;20391;-74
2022/03/18 08:05:49;;;;;;;43.10;20.63;;;7.20;92.50;;;;;;5054043;28;20104;-74
2022/03/18 08:08:15;;;;;;;33.10;17.85;;;7.40;93.10;;;;;;5053239;28;20071;-73
2022/03/18 08:10:41;;;;;;;27.85;16.90;;;7.30;91.20;;;;;;5053427;28;20482;-74
2022/03/18 08:13:06;;;;;;;25.13;14.65;;;7.40;91.60;;;;;;5053608;28;20378;-73
2022/03/18 08:15:33;;;;;;;27.50;16.85;;;7.30;90.10;;;;;;5053446;28;20033;-74
2022/03/18 08:18:00;;;;;;;28.15;16.67;;;7.20;90.20;;;;;;5053701;28;20052;-74
2022/03/18 08:20:26;;;;;;;32.65;18.00;;;7.30;90.10;;;;;;5053819;28;20025;-75
2022/03/18 08:22:52;;;;;;;34.17;18.20;;;7.60;90.00;;;;;;5053418;28;20032;-75
2022/03/18 08:25:19;;;;;;;37.92;17.08;;;7.70;87.30;;;;;;5053745;28;20025;-75
2022/03/18 08:27:47;;;;;;;305.23;88.10;;;7.90;86.10;;;;;;5053530;28;20061;-75
2022/03/18 08:30:13;;;;;;;199.45;63.55;;;7.80;83.50;;;;;;5053294;28;20057;-74
2022/03/18 08:32:40;;;;;;;38.10;23.80;;;8.10;84.00;;;;;;5053574;28;20021;-75
2022/03/18 08:35:07;;;;;;;31.42;18.05;;;8.20;81.60;;;;;;5053402;28;20048;-74
2022/03/18 08:40:18;;;;;;;66.07;37.75;;;8.10;79.40;;;;;;5053546;28;20407;-74
2022/03/18 08:42:44;;;;;;;69.43;40.70;;;8.20;79.90;;;;;;5053442;28;20448;-74
2022/03/18 08:45:10;;;;;;;143.18;85.82;;;8.10;79.30;;;;;;5053430;28;20033;-74
2022/03/18 08:47:36;;;;;;;30.08;19.05;;;7.90;80.10;;;;;;5053293;28;20452;-74
2022/03/18 08:50:04;;;;;;;36.80;15.88;;;8.00;79.80;;;;;;5052941;28;20029;-74
2022/03/18 08:52:29;;;;;;;29.70;15.45;;;7.90;79.10;;;;;;5053575;28;20360;-74
2022/03/18 08:54:55;;;;;;;32.67;16.38;;;8.20;81.10;;;;;;5053435;28;20481;-74
2022/03/18 08:57:21;;;;;;;33.70;16.77;;;8.30;79.90;;;;;;5053257;28;20029;-74
2022/03/18 08:59:47;;;;;;;27.85;15.80;;;8.20;80.60;;;;;;5053340;28;20037;-74
2022/03/18 09:02:12;;;;;;;37.30;18.05;;;8.10;79.60;;;;;;5053403;28;20052;-73
2022/03/18 09:04:38;;;;;;;38.95;18.33;;;8.30;79.90;;;;;;5052969;28;20108;-74
2022/03/18 09:07:04;;;;;;;42.08;20.65;;;8.30;78.50;;;;;;5053078;28;20033;-74
2022/03/18 09:09:30;;;;;;;25.73;14.40;;;8.80;79.60;;;;;;5053265;28;20021;-74
2022/03/18 09:11:56;;;;;;;24.35;14.15;;;8.60;76.80;;;;;;5053539;28;20384;-74
2022/03/18 09:14:22;;;;;;;29.52;16.55;;;8.80;77.10;;;;;;5053256;28;20033;-75
2022/03/18 09:16:49;;;;;;;39.67;17.30;;;8.80;75.70;;;;;;5052937;28;20452;-74
2022/03/18 09:19:15;;;;;;;32.13;16.60;;;8.90;76.10;;;;;;5053249;28;20029;-74
2022/03/18 09:21:41;;;;;;;41.58;23.52;;;9.40;76.90;;;;;;5054233;28;20029;-73
2022/03/18 09:24:07;;;;;;;35.63;19.13;;;9.60;75.70;;;;;;5056460;28;20430;-74
2022/03/18 09:26:33;;;;;;;27.05;14.52;;;9.70;74.20;;;;;;5056637;28;20426;-74
2022/03/18 09:28:59;;;;;;;27.17;15.80;;;9.50;71.80;;;;;;5056565;28;20025;-74
2022/03/18 09:31:25;;;;;;;48.25;22.10;;;9.70;71.00;;;;;;5056662;28;20556;-74
2022/03/18 09:33:51;;;;;;;72.95;34.20;;;9.90;71.30;;;;;;5056496;28;20404;-75
2022/03/18 09:36:18;;;;;;;46.33;26.52;;;10.00;70.80;;;;;;5056425;28;20071;-74
2022/03/18 09:38:48;;;;;;;42.95;24.45;;;9.60;70.00;;;;;;5056464;28;20080;-73
2022/03/18 09:41:14;;;;;;;30.13;15.65;;;9.90;70.50;;;;;;5056311;28;20052;-74
2022/03/18 09:43:41;;;;;;;29.13;15.68;;;9.70;68.80;;;;;;5056432;28;20391;-74
2022/03/18 09:46:12;;;;;;;25.70;14.75;;;9.70;68.80;;;;;;5056319;28;20025;-73
2022/03/18 09:48:39;;;;;;;28.47;15.40;;;10.00;68.00;;;;;;5056857;28;20024;-75
2022/03/18 09:51:05;;;;;;;27.02;15.60;;;10.40;67.70;;;;;;5056106;28;20288;-75
2022/03/18 09:53:34;;;;;;;34.33;18.35;;;10.70;66.30;;;;;;5056270;28;20482;-74
2022/03/18 09:56:01;;;;;;;53.40;24.98;;;10.60;64.70;;;;;;5055988;28;20463;-75
2022/03/18 09:58:27;;;;;;;36.40;17.30;;;10.70;64.90;;;;;;5056362;28;20021;-75
2022/03/18 10:00:58;;;;;;;33.00;17.77;;;10.40;63.80;;;;;;5056062;28;20029;-76
2022/03/18 10:03:37;;;;;;;33.13;16.50;;;10.30;64.10;;;;;;5056632;28;20108;-77
2022/03/18 10:06:04;;;;;;;26.98;15.00;;;10.50;64.70;;;;;;5056081;28;20026;-77
2022/03/18 10:08:37;;;;;;;30.17;16.08;;;10.20;62.90;;;;;;5055924;28;20025;-75
2022/03/18 10:11:15;;;;;;;33.80;17.85;;;10.10;64.70;;;;;;5055897;28;20027;-75
2022/03/18 10:14:02;;;;;;;36.25;17.83;;;10.00;65.10;;;;;;5054714;28;20357;-76
2022/03/18 10:16:38;;;;;;;43.95;22.73;;;9.80;63.80;;;;;;5055672;28;20522;-75
2022/03/18 10:19:18;;;;;;;47.88;23.30;;;10.00;63.60;;;;;;5055936;28;20064;-75
2022/03/18 10:21:50;;;;;;;36.35;17.83;;;10.10;63.90;;;;;;5055612;28;20029;-74
2022/03/18 10:24:16;;;;;;;31.15;16.52;;;10.20;64.40;;;;;;5055869;28;20104;-75
2022/03/18 10:26:42;;;;;;;29.45;13.63;;;10.20;62.90;;;;;;5055796;28;20056;-75
2022/03/18 10:29:11;;;;;;;23.13;13.70;;;10.40;64.00;;;;;;5055691;28;20018;-75
2022/03/18 10:31:46;;;;;;;63.58;33.35;;;10.10;62.20;;;;;;5055589;28;20063;-74
2022/03/18 10:37:06;;;;;;;20.20;11.50;;;10.40;62.40;;;;;;5055589;28;20032;-75
2022/03/18 10:39:41;;;;;;;37.97;19.42;;;10.50;61.00;;;;;;5055852;28;20107;-74
2022/03/18 10:42:12;;;;;;;31.55;15.88;;;10.70;63.70;;;;;;5055029;28;20036;-74
2022/03/18 10:44:49;;;;;;;40.75;21.23;;;10.60;61.90;;;;;;5055074;28;20025;-74
2022/03/18 10:47:42;;;;;;;26.27;15.45;;;10.60;61.50;;;;;;5055429;28;20484;-74
2022/03/18 10:50:11;;;;;;;27.55;14.07;;;10.60;60.60;;;;;;5055227;28;20025;-75
2022/03/18 10:53:00;;;;;;;32.28;15.00;;;10.60;60.30;;;;;;5054989;28;20491;-75
2022/03/18 10:55:31;;;;;;;31.25;15.02;;;10.70;59.40;;;;;;5053868;28;20025;-74
2022/03/18 10:58:16;;;;;;;29.40;13.52;;;11.00;58.60;;;;;;5055227;28;20021;-76
2022/03/18 11:00:48;;;;;;;21.67;11.88;;;10.80;58.10;;;;;;5055601;28;20159;-75
2022/03/18 11:03:15;;;;;;;23.08;12.05;;;11.20;59.70;;;;;;5054918;28;20017;-75
2022/03/18 11:05:47;;;;;;;32.80;15.70;;;11.00;56.30;;;;;;5054852;28;20487;-75
2022/03/18 11:08:14;;;;;;;;;;;11.00;58.20;;;;;;5055342;28;20071;-73
2022/03/18 11:11:07;;;;;;;31.20;13.82;;;11.00;57.20;;;;;;5052991;28;20286;-74
2022/03/18 11:13:48;;;;;;;58.65;25.27;;;11.10;55.70;;;;;;5054065;28;20060;-75
2022/03/18 11:16:21;;;;;;;33.55;16.90;;;11.30;54.30;;;;;;5054060;28;20040;-74
2022/03/18 11:18:48;;;;;;;31.35;15.25;;;11.40;54.60;;;;;;5053653;28;20029;-74
2022/03/18 11:21:15;;;;;;;71.60;27.75;;;11.60;54.80;;;;;;5052785;28;20516;-74
2022/03/18 11:23:45;;;;;;;30.15;14.95;;;11.60;53.30;;;;;;5053705;28;20037;-75
2022/03/18 11:26:15;;;;;;;47.25;21.10;;;11.50;54.50;;;;;;5053877;28;20017;-75
2022/03/18 11:28:42;;;;;;;47.70;18.38;;;12.00;52.90;;;;;;5053828;28;20021;-73
2022/03/18 11:31:19;;;;;;;36.85;17.50;;;12.00;52.40;;;;;;5053867;28;20102;-74
2022/03/18 11:34:08;;;;;;;35.88;16.63;;;12.50;54.10;;;;;;5053448;28;20837;-74
2022/03/18 11:36:35;;;;;;;26.80;13.70;;;12.70;52.60;;;;;;5053534;28;20403;-74
2022/03/18 11:39:07;;;;;;;22.23;12.23;;;13.10;53.00;;;;;;5053565;28;20017;-75
2022/03/18 11:41:54;;;;;;;;;;;13.00;49.70;;;;;;5054340;28;20075;-75
2022/03/18 11:44:40;;;;;;;19.98;10.23;;;13.20;50.20;;;;;;5052915;28;19905;-74
2022/03/18 11:47:20;;;;;;;16.25;9.27;;;13.00;48.70;;;;;;5053632;28;20473;-76
2022/03/18 11:49:50;;;;;;;34.97;14.70;;;12.90;48.50;;;;;;5053031;28;20116;-75
2022/03/18 11:52:16;;;;;;;35.75;17.00;;;13.20;48.50;;;;;;5053411;28;20460;-75
2022/03/18 11:54:58;;;;;;;47.30;21.88;;;13.00;48.90;;;;;;5053223;28;20479;-76
2022/03/18 11:57:29;;;;;;;38.13;17.45;;;12.90;50.00;;;;;;5053727;28;20498;-74
2022/03/18 11:59:55;;;;;;;53.00;25.90;;;12.70;48.50;;;;;;5053633;28;20086;-75
2022/03/18 12:02:34;;;;;;;28.35;13.68;;;13.00;49.50;;;;;;5053980;28;20539;-75
2022/03/18 12:05:00;;;;;;;27.58;12.80;;;13.00;47.70;;;;;;5053845;28;20109;-74
2022/03/18 12:07:28;;;;;;;31.23;15.75;;;12.90;47.10;;;;;;5053733;28;20017;-75
2022/03/18 12:10:00;;;;;;;34.15;16.90;;;13.30;47.20;;;;;;5053811;28;20036;-75
2022/03/18 12:12:44;;;;;;;24.08;12.45;;;13.00;48.00;;;;;;5053833;28;20032;-75
2022/03/18 12:15:10;;;;;;;32.13;16.77;;;13.40;48.60;;;;;;5053999;28;20037;-75
2022/03/18 12:17:51;;;;;;;59.53;25.25;;;13.60;47.80;;;;;;5053574;28;20109;-75
2022/03/18 12:20:21;;;;;;;54.95;23.10;;;13.50;48.50;;;;;;5053861;28;20033;-75
2022/03/18 12:22:49;;;;;;;36.85;17.73;;;13.10;45.70;;;;;;5053371;28;20436;-74
2022/03/18 12:25:16;;;;;;;19.20;10.40;;;12.60;46.10;;;;;;5053717;28;20021;-76
2022/03/18 12:27:44;;;;;;;17.15;9.60;;;12.80;46.00;;;;;;5053014;28;20421;-73
2022/03/18 12:30:21;;;;;;;20.13;10.73;;;12.50;44.30;;;;;;5053100;28;20060;-75
2022/03/18 12:32:58;;;;;;;44.50;18.75;;;12.50;43.70;;;;;;5053274;28;20074;-75
2022/03/18 12:35:33;;;;;;;35.80;15.27;;;12.90;43.70;;;;;;5053709;28;20051;-74
2022/03/18 12:38:03;;;;;;;47.30;22.85;;;13.00;44.60;;;;;;5053860;28;20036;-76
2022/03/18 12:40:30;;;;;;;29.73;15.10;;;12.70;43.90;;;;;;5052123;28;20037;-75
2022/03/18 12:42:58;;;;;;;21.40;11.05;;;12.90;43.80;;;;;;5053623;28;20029;-75
2022/03/18 12:45:37;;;;;;;15.77;8.50;;;12.90;45.40;;;;;;5053506;28;20033;-74
2022/03/18 12:48:05;;;;;;;21.55;13.95;;;12.70;45.00;;;;;;5053407;28;20071;-75
2022/03/18 12:50:49;;;;;;;23.38;10.88;;;12.60;45.20;;;;;;5053342;28;20025;-74
2022/03/18 12:53:22;;;;;;;48.05;20.27;;;12.30;44.40;;;;;;5053543;28;20029;-76
2022/03/18 12:55:54;;;;;;;36.92;15.50;;;12.50;44.30;;;;;;5052751;28;20471;-74
2022/03/18 12:58:21;;;;;;;37.58;16.55;;;12.70;44.00;;;;;;5057064;28;20542;-75
2022/03/18 13:00:56;;;;;;;33.33;14.90;;;12.50;43.60;;;;;;5057250;28;20025;-76
2022/03/18 13:03:26;;;;;;;33.53;14.15;;;12.30;43.80;;;;;;5057427;28;20025;-74